Time;durP1;ratioP1;P1;durP2;ratioP2;P2;SDS_P1;SDS_P2;PMS_P1;PMS_P2;Temp;Humidity;BMP_temperature;BMP_pressure;BME280_temperature;BME280_humidity;BME280_pressure;Samples;Min_cycle;Max_cycle;Signal;HPM_P1;HPM_P2
2024/03/15 00:00:12;;;;;;;19.90;13.00;;;;;;;5.19;100.00;101148.64;106037;1251;71466;-72
2024/03/15 00:02:39;;;;;;;16.70;13.60;;;;;;;5.17;100.00;101149.58;105975;1254;61241;-74
2024/03/15 00:05:09;;;;;;;20.20;14.20;;;;;;;5.13;100.00;101148.99;106064;1251;61221;-73
2024/03/15 00:07:36;;;;;;;19.20;13.00;;;;;;;5.09;100.00;101144.23;106015;1254;74641;-74
2024/03/15 00:10:03;;;;;;;19.60;14.50;;;;;;;5.07;100.00;101147.95;105975;1254;63872;-73
2024/03/15 00:12:33;;;;;;;25.40;13.70;;;;;;;5.05;100.00;101139.88;105888;1254;72706;-73
2024/03/15 00:14:59;;;;;;;23.80;15.60;;;;;;;5.05;100.00;101140.21;105887;1254;61288;-74
2024/03/15 00:17:27;;;;;;;19.60;15.20;;;;;;;5.03;100.00;101142.70;105875;1251;61366;-75
2024/03/15 00:19:54;;;;;;;23.60;15.50;;;;;;;5.02;100.00;101141.52;105890;1254;74685;-74
2024/03/15 00:22:23;;;;;;;20.40;15.40;;;;;;;5.05;100.00;101146.45;105845;1254;63862;-72
2024/03/15 00:24:50;;;;;;;30.50;18.20;;;;;;;5.07;100.00;101144.52;105854;1250;72832;-73
2024/03/15 00:27:20;;;;;;;26.90;19.00;;;;;;;5.16;100.00;101148.89;105972;1254;61257;-73
2024/03/15 00:29:47;;;;;;;30.60;22.00;;;;;;;5.21;100.00;101145.13;106743;1250;61276;-72
2024/03/15 00:32:14;;;;;;;26.00;20.10;;;;;;;5.21;100.00;101141.13;107526;1254;74684;-72
2024/03/15 00:34:41;;;;;;;31.70;21.20;;;;;;;5.21;100.00;101142.00;106348;1254;62360;-71
2024/03/15 00:37:08;;;;;;;32.60;23.20;;;;;;;5.23;100.00;101143.17;105968;1251;72728;-74
2024/03/15 00:39:35;;;;;;;29.20;21.40;;;;;;;5.25;100.00;101145.86;105935;1254;61818;-75
2024/03/15 00:42:03;;;;;;;38.00;23.30;;;;;;;5.26;100.00;101148.09;105974;1251;61261;-72
2024/03/15 00:44:30;;;;;;;35.70;20.90;;;;;;;5.26;100.00;101147.92;105839;1252;74667;-73
2024/03/15 00:46:57;;;;;;;33.90;20.80;;;;;;;5.24;100.00;101143.50;106049;1250;62404;-74
2024/03/15 00:49:25;;;;;;;31.30;19.80;;;;;;;5.21;100.00;101149.46;105928;1251;72645;-73
2024/03/15 00:51:52;;;;;;;30.40;21.50;;;;;;;5.16;100.00;101147.17;106025;1254;62025;-73
2024/03/15 00:54:19;;;;;;;32.80;18.90;;;;;;;5.13;100.00;101151.58;105946;1250;61333;-73
2024/03/15 00:56:46;;;;;;;38.70;21.40;;;;;;;5.12;100.00;101150.05;105954;1256;74789;-73
2024/03/15 00:59:13;;;;;;;26.60;19.20;;;;;;;5.14;100.00;101150.34;105991;1254;63353;-74
2024/03/15 01:01:42;;;;;;;31.00;20.20;;;;;;;5.20;100.00;101146.00;105882;1254;72697;-76
2024/03/15 01:04:09;;;;;;;32.80;21.70;;;;;;;5.23;100.00;101143.70;105890;1254;61330;-74
2024/03/15 01:06:37;;;;;;;30.20;22.00;;;;;;;5.22;100.00;101142.15;105875;1250;61234;-74
2024/03/15 01:09:04;;;;;;;36.80;21.50;;;;;;;5.22;100.00;101142.48;105857;1250;74560;-73
2024/03/15 01:11:31;;;;;;;36.50;23.00;;;;;;;5.25;100.00;101140.87;105884;1250;62262;-73
2024/03/15 01:13:59;;;;;;;36.30;20.90;;;;;;;5.24;100.00;101141.05;105715;1250;72779;-74
2024/03/15 01:16:26;;;;;;;29.00;20.40;;;;;;;5.22;100.00;101137.80;105890;1250;61232;-74
2024/03/15 01:18:54;;;;;;;30.40;20.40;;;;;;;5.21;100.00;101139.24;105913;1250;61222;-74
2024/03/15 01:21:26;;;;;;;29.00;20.20;;;;;;;5.20;100.00;101137.19;105843;1250;73238;-73
2024/03/15 01:23:54;;;;;;;38.50;20.50;;;;;;;5.16;100.00;101134.67;105851;1251;62490;-73
2024/03/15 01:26:21;;;;;;;30.00;19.40;;;;;;;5.14;100.00;101132.15;105895;1250;72749;-73
2024/03/15 01:28:49;;;;;;;29.50;19.30;;;;;;;5.18;100.00;101136.53;105878;1254;61241;-73
2024/03/15 01:31:16;;;;;;;27.00;17.40;;;;;;;5.25;100.00;101134.10;105924;1250;61205;-73
2024/03/15 01:33:42;;;;;;;26.80;17.00;;;;;;;5.27;100.00;101136.44;105904;1254;74527;-73
2024/03/15 01:36:10;;;;;;;25.90;17.70;;;;;;;5.26;100.00;101134.73;105848;1254;63861;-74
2024/03/15 01:38:37;;;;;;;26.90;18.10;;;;;;;5.25;100.00;101133.03;105872;1251;71188;-75
2024/03/15 01:41:03;;;;;;;31.00;18.30;;;;;;;5.25;100.00;101136.19;105922;1254;61234;-73
2024/03/15 01:43:30;;;;;;;29.20;20.50;;;;;;;5.22;100.00;101134.88;105948;1250;61343;-72
2024/03/15 01:45:57;;;;;;;34.40;20.80;;;;;;;5.19;100.00;101133.38;105892;1250;74705;-73
2024/03/15 01:48:24;;;;;;;35.60;19.70;;;;;;;5.21;100.00;101135.42;105780;1255;62653;-74
2024/03/15 01:50:51;;;;;;;36.00;20.60;;;;;;;5.18;100.00;101134.27;105948;1250;71698;-74
2024/03/15 01:53:19;;;;;;;31.60;21.60;;;;;;;5.14;100.00;101133.19;105976;1254;61302;-73
2024/03/15 01:55:46;;;;;;;33.10;19.30;;;;;;;5.13;100.00;101138.60;105800;1257;61327;-74
2024/03/15 01:58:14;;;;;;;38.30;22.20;;;;;;;5.10;100.00;101138.49;105887;1254;74687;-72
2024/03/15 02:00:41;;;;;;;34.70;20.40;;;;;;;5.06;100.00;101132.89;105865;1254;62939;-73
2024/03/15 02:03:08;;;;;;;37.60;21.40;;;;;;;5.04;100.00;101128.27;105893;1250;72983;-74
2024/03/15 02:05:35;;;;;;;35.90;22.20;;;;;;;5.04;100.00;101126.02;105977;1254;61967;-74
2024/03/15 02:08:08;;;;;;;40.10;21.60;;;;;;;5.08;100.00;101130.25;105909;1250;61340;-72
2024/03/15 02:10:35;;;;;;;43.90;24.70;;;;;;;5.12;100.00;101125.46;105963;1250;74566;-73
2024/03/15 02:13:03;;;;;;;37.60;21.90;;;;;;;5.14;100.00;101127.46;105847;1253;63904;-73
2024/03/15 02:15:30;;;;;;;39.50;23.20;;;;;;;5.15;100.00;101129.00;105877;1250;72511;-73
2024/03/15 02:17:57;;;;;;;39.10;23.30;;;;;;;5.11;100.00;101135.19;105927;1255;61749;-73
2024/03/15 02:20:24;;;;;;;43.90;24.30;;;;;;;5.09;100.00;101135.24;105944;1250;61269;-75
2024/03/15 02:22:51;;;;;;;43.00;23.90;;;;;;;5.09;100.00;101136.80;105962;1250;74667;-72
2024/03/15 02:25:18;;;;;;;39.00;25.10;;;;;;;5.10;100.00;101135.56;105987;1254;63600;-72
2024/03/15 02:27:45;;;;;;;38.50;24.30;;;;;;;5.07;100.00;101141.54;105901;1250;71101;-73
2024/03/15 02:30:12;;;;;;;45.80;27.60;;;;;;;5.04;100.00;101145.27;105857;1255;61212;-72
2024/03/15 02:32:39;;;;;;;46.70;25.20;;;;;;;4.99;100.00;101144.71;105957;1254;61340;-73
2024/03/15 02:35:09;;;;;;;49.50;22.90;;;;;;;4.95;100.00;101148.61;105866;1250;74727;-74
2024/03/15 02:37:52;;;;;;;34.80;21.00;;;;;;;4.90;100.00;101144.11;105927;1254;63780;-73
2024/03/15 02:40:19;;;;;;;37.30;18.90;;;;;;;4.88;100.00;101148.33;105947;1250;72656;-77
2024/03/15 02:42:46;;;;;;;34.80;18.40;;;;;;;4.86;100.00;101147.31;106006;1254;61821;-74
2024/03/15 02:45:14;;;;;;;38.50;17.50;;;;;;;4.87;100.00;101150.93;105811;1250;61132;-73
2024/03/15 02:47:41;;;;;;;35.00;19.80;;;;;;;4.88;100.00;101154.88;105874;1254;74493;-74
2024/03/15 02:50:09;;;;;;;30.70;16.50;;;;;;;4.91;100.00;101156.20;105862;1254;63683;-74
2024/03/15 02:52:36;;;;;;;33.60;18.70;;;;;;;4.93;100.00;101159.08;105822;1251;72658;-74
2024/03/15 02:55:04;;;;;;;35.00;15.90;;;;;;;4.96;100.00;101160.02;105878;1254;62007;-73
2024/03/15 02:57:31;;;;;;;26.20;16.30;;;;;;;5.01;100.00;101161.63;105912;1250;61330;-72
2024/03/15 02:59:58;;;;;;;29.40;15.10;;;;;;;5.03;100.00;101162.61;105820;1254;74668;-74
2024/03/15 03:02:24;;;;;;;35.70;16.30;;;;;;;5.02;100.00;101160.77;106165;1256;63866;-73
2024/03/15 03:04:51;;;;;;;30.60;16.90;;;;;;;5.01;100.00;101166.33;106032;1250;72702;-75
2024/03/15 03:07:19;;;;;;;31.50;15.00;;;;;;;5.00;100.00;101167.73;106042;1254;61207;-73
2024/03/15 03:09:46;;;;;;;29.10;16.30;;;;;;;4.99;100.00;101163.78;105858;1250;61106;-73
2024/03/15 03:12:14;;;;;;;33.10;15.60;;;;;;;5.00;100.00;101170.50;105835;1255;74580;-74
2024/03/15 03:14:41;;;;;;;20.50;12.80;;;;;;;5.01;100.00;101170.13;105915;1256;63892;-75
2024/03/15 03:17:08;;;;;;;26.70;14.20;;;;;;;4.98;100.00;101170.55;105874;1254;72369;-76
2024/03/15 03:19:35;;;;;;;30.40;16.40;;;;;;;4.94;100.00;101170.50;105956;1250;63191;-74
2024/03/15 03:22:02;;;;;;;29.30;15.50;;;;;;;4.92;100.00;101173.48;106836;1250;61266;-73
2024/03/15 03:24:29;;;;;;;26.30;14.00;;;;;;;5.01;100.00;101174.45;109434;1250;73969;-73
2024/03/15 03:26:56;;;;;;;37.70;17.40;;;;;;;5.11;100.00;101171.92;108114;1254;62803;-73
2024/03/15 03:29:23;;;;;;;36.10;16.10;;;;;;;5.17;100.00;101174.00;106385;1251;71384;-76
2024/03/15 03:31:50;;;;;;;30.80;15.60;;;;;;;5.24;100.00;101173.45;105963;1254;61853;-73
2024/03/15 03:34:17;;;;;;;28.30;14.50;;;;;;;5.28;100.00;101172.66;105916;1255;61355;-72
2024/03/15 03:36:44;;;;;;;34.00;16.40;;;;;;;5.29;100.00;101169.31;105987;1256;73565;-73
2024/03/15 03:39:13;;;;;;;38.30;17.20;;;;;;;5.32;100.00;101166.29;106024;1254;63861;-74
2024/03/15 03:41:40;;;;;;;31.70;14.10;;;;;;;5.35;100.00;101170.20;105955;1255;72553;-74
2024/03/15 03:44:07;;;;;;;30.30;16.20;;;;;;;5.29;100.00;101174.85;105985;1251;61257;-73
2024/03/15 03:46:34;;;;;;;29.70;15.00;;;;;;;5.18;100.00;101170.52;105984;1256;61244;-74
2024/03/15 03:49:01;;;;;;;26.60;15.90;;;;;;;5.11;100.00;101174.88;105876;1250;74327;-73
2024/03/15 03:51:29;;;;;;;29.00;15.10;;;;;;;5.08;100.00;101174.27;105892;1254;63957;-75
2024/03/15 03:53:56;;;;;;;32.80;15.80;;;;;;;5.06;100.00;101174.66;105958;1254;71033;-74
2024/03/15 03:56:23;;;;;;;34.10;15.40;;;;;;;5.04;100.00;101174.39;105922;1250;61704;-76
2024/03/15 03:58:50;;;;;;;25.30;14.60;;;;;;;5.03;100.00;101175.27;105881;1251;61344;-74
2024/03/15 04:01:18;;;;;;;35.80;16.10;;;;;;;4.98;100.00;101170.21;105878;1254;74712;-73
2024/03/15 04:03:48;;;;;;;23.60;14.40;;;;;;;4.95;100.00;101172.89;105871;1255;62798;-73
2024/03/15 04:06:16;;;;;;;36.50;18.20;;;;;;;4.94;100.00;101174.64;105868;1250;72646;-74
2024/03/15 04:08:43;;;;;;;25.90;14.70;;;;;;;4.91;100.00;101169.54;105908;1252;61807;-74
2024/03/15 04:11:10;;;;;;;33.60;16.30;;;;;;;4.90;100.00;101174.95;105847;1256;61300;-74
2024/03/15 04:13:37;;;;;;;27.50;16.50;;;;;;;4.89;100.00;101173.41;105909;1250;74686;-73
2024/03/15 04:16:04;;;;;;;30.60;17.60;;;;;;;4.85;100.00;101173.34;105932;1255;63756;-73
2024/03/15 04:18:34;;;;;;;35.90;16.00;;;;;;;4.83;100.00;101169.42;106041;1250;72990;-73
2024/03/15 04:21:01;;;;;;;36.60;16.40;;;;;;;4.84;100.00;101167.64;105944;1254;61288;-74
2024/03/15 04:23:30;;;;;;;31.70;15.30;;;;;;;4.89;100.00;101170.46;105905;1256;61320;-73
2024/03/15 04:25:57;;;;;;;26.20;14.80;;;;;;;4.89;100.00;101177.40;105958;1254;74649;-72
2024/03/15 04:28:24;;;;;;;26.10;14.70;;;;;;;4.84;100.00;101178.39;105841;1251;63519;-73
2024/03/15 04:30:56;;;;;;;25.30;14.90;;;;;;;4.81;100.00;101184.35;105908;1251;72450;-71
2024/03/15 04:33:24;;;;;;;22.30;14.60;;;;;;;4.76;100.00;101185.54;105915;1256;61273;-74
2024/03/15 04:35:51;;;;;;;26.70;13.60;;;;;;;4.72;100.00;101187.71;105904;1256;61196;-73
2024/03/15 04:38:18;;;;;;;27.90;14.70;;;;;;;4.69;100.00;101187.43;105924;1256;74418;-73
2024/03/15 04:40:45;;;;;;;24.60;14.60;;;;;;;4.70;100.00;101186.21;105980;1256;64004;-74
2024/03/15 04:43:12;;;;;;;22.40;13.20;;;;;;;4.71;100.00;101190.86;105919;1250;73222;-73
2024/03/15 04:45:40;;;;;;;26.00;12.80;;;;;;;4.68;100.00;101192.48;105950;1256;61130;-74
2024/03/15 04:48:09;;;;;;;21.20;12.70;;;;;;;4.59;100.00;101201.20;105945;1253;61321;-75
2024/03/15 04:50:36;;;;;;;26.50;14.00;;;;;;;4.51;100.00;101200.55;106000;1250;72350;-72
2024/03/15 04:53:03;;;;;;;21.80;13.70;;;;;;;4.47;100.00;101201.17;105928;1255;62354;-73
2024/03/15 04:55:30;;;;;;;25.60;14.60;;;;;;;4.50;100.00;101201.46;106098;1256;72739;-74
2024/03/15 04:57:58;;;;;;;31.70;15.00;;;;;;;4.54;100.00;101204.63;106024;1250;61333;-74
2024/03/15 05:00:25;;;;;;;21.90;13.80;;;;;;;4.59;100.00;101207.63;105913;1250;61352;-75
2024/03/15 05:02:52;;;;;;;24.90;13.60;;;;;;;4.68;100.00;101200.81;105878;1251;74643;-73
2024/03/15 05:05:21;;;;;;;24.20;14.40;;;;;;;4.78;100.00;101204.87;105930;1254;63077;-73
2024/03/15 05:07:48;;;;;;;24.70;13.20;;;;;;;4.87;100.00;101211.41;105904;1250;71364;-74
2024/03/15 05:10:18;;;;;;;26.10;14.70;;;;;;;4.90;100.00;101213.73;105966;1255;61357;-72
2024/03/15 05:12:49;;;;;;;23.20;14.00;;;;;;;4.90;100.00;101217.39;105969;1256;61234;-74
2024/03/15 05:15:17;;;;;;;21.60;14.10;;;;;;;4.91;100.00;101218.40;106061;1250;74575;-74
2024/03/15 05:17:44;;;;;;;24.40;13.40;;;;;;;4.90;100.00;101220.84;106010;1256;62581;-76
2024/03/15 05:20:14;;;;;;;23.60;13.50;;;;;;;4.89;100.00;101217.59;105834;1250;72525;-75
2024/03/15 05:22:44;;;;;;;21.90;11.50;;;;;;;4.85;100.00;101220.98;105904;1256;61198;-74
2024/03/15 05:25:15;;;;;;;25.30;13.20;;;;;;;4.81;100.00;101225.58;105888;1251;61232;-75
2024/03/15 05:27:45;;;;;;;29.60;13.70;;;;;;;4.74;100.00;101220.76;105886;1250;74637;-74
2024/03/15 05:30:14;;;;;;;23.00;12.80;;;;;;;4.73;100.00;101224.07;105977;1254;63794;-73
2024/03/15 05:32:41;;;;;;;28.60;14.30;;;;;;;4.76;100.00;101227.79;105924;1250;72676;-74
2024/03/15 05:35:09;;;;;;;22.70;13.80;;;;;;;4.78;100.00;101232.77;105965;1254;61321;-75
2024/03/15 05:37:37;;;;;;;23.30;13.10;;;;;;;4.77;100.00;101233.30;106051;1250;61231;-74
2024/03/15 05:40:05;;;;;;;17.70;12.70;;;;;;;4.75;100.00;101236.14;105977;1250;73424;-75
2024/03/15 05:42:33;;;;;;;27.10;12.30;;;;;;;4.69;100.00;101235.08;105996;1254;63938;-72
2024/03/15 05:45:00;;;;;;;27.30;13.60;;;;;;;4.61;100.00;101239.27;105916;1250;72464;-75
2024/03/15 05:47:26;;;;;;;21.20;11.90;;;;;;;4.55;100.00;101246.34;105896;1255;61202;-75
2024/03/15 05:49:56;;;;;;;24.50;13.10;;;;;;;4.53;100.00;101241.17;106003;1251;61234;-75
2024/03/15 05:52:23;;;;;;;21.30;14.00;;;;;;;4.53;100.00;101241.20;105961;1256;74631;-73
2024/03/15 05:54:50;;;;;;;23.10;13.70;;;;;;;4.53;100.00;101242.20;106033;1255;63869;-74
2024/03/15 05:57:17;;;;;;;26.80;13.30;;;;;;;4.53;100.00;101238.23;106002;1250;71774;-73
2024/03/15 05:59:45;;;;;;;25.10;13.20;;;;;;;4.54;100.00;101238.91;105884;1250;61346;-74
2024/03/15 06:02:14;;;;;;;25.60;14.00;;;;;;;4.50;100.00;101239.38;105954;1251;61254;-73
2024/03/15 06:04:42;;;;;;;27.80;14.10;;;;;;;4.47;100.00;101241.00;105990;1254;74689;-75
2024/03/15 06:07:10;;;;;;;27.10;13.10;;;;;;;4.46;100.00;101241.72;106071;1255;62010;-76
2024/03/15 06:09:38;;;;;;;32.40;14.50;;;;;;;4.50;100.00;101243.35;105903;1250;70122;-74
2024/03/15 06:12:05;;;;;;;22.40;13.40;;;;;;;4.51;100.00;101243.15;106009;1256;61324;-74
2024/03/15 06:14:33;;;;;;;26.10;13.60;;;;;;;4.50;100.00;101241.80;106185;1250;61261;-73
2024/03/15 06:17:04;;;;;;;28.60;14.80;;;;;;;4.49;100.00;101242.68;107919;1250;74528;-74
2024/03/15 06:19:31;;;;;;;26.20;17.70;;;;;;;4.52;100.00;101243.48;108373;1250;62390;-74
2024/03/15 06:21:58;;;;;;;25.60;15.10;;;;;;;4.57;100.00;101241.45;106382;1256;72536;-76
2024/03/15 06:24:25;;;;;;;32.20;14.80;;;;;;;4.61;100.00;101244.65;105877;1251;61314;-75
2024/03/15 06:26:56;;;;;;;32.60;16.80;;;;;;;4.60;100.00;101244.33;105927;1254;61264;-75
2024/03/15 06:29:31;;;;;;;35.10;16.70;;;;;;;4.58;100.00;101243.67;105996;1254;72905;-74
2024/03/15 06:31:59;;;;;;;28.30;14.70;;;;;;;4.59;100.00;101243.29;106025;1251;63802;-74
2024/03/15 06:34:31;;;;;;;30.80;16.30;;;;;;;4.58;100.00;101242.30;105992;1254;70979;-74
2024/03/15 06:36:59;;;;;;;32.50;15.10;;;;;;;4.54;100.00;101241.68;106035;1256;61249;-75
2024/03/15 06:42:20;;;;;;;34.40;15.90;;;;;;;4.62;100.00;101239.42;105990;1251;77254;-73
2024/03/15 06:44:50;;;;;;;34.70;15.10;;;;;;;4.67;100.00;101237.55;105970;1255;65015;-75
2024/03/15 06:47:18;;;;;;;37.50;16.90;;;;;;;4.69;100.00;101235.60;105713;1256;72451;-76
2024/03/15 06:49:48;;;;;;;29.00;15.00;;;;;;;4.74;100.00;101238.07;105934;1250;61250;-76
2024/03/15 06:52:34;;;;;;;40.00;17.00;;;;;;;4.78;100.00;101234.83;105954;1256;61238;-74
2024/03/15 06:55:02;;;;;;;27.70;15.90;;;;;;;4.80;100.00;101238.25;105771;1256;75434;-75
2024/03/15 06:57:32;;;;;;;34.60;18.20;;;;;;;4.81;100.00;101236.52;105885;1253;62740;-74
2024/03/15 07:00:00;;;;;;;38.20;16.80;;;;;;;4.81;100.00;101236.52;105946;1250;72543;-75
2024/03/15 07:02:29;;;;;;;40.40;17.40;;;;;;;4.79;100.00;101233.95;105957;1254;62086;-74
2024/03/15 07:04:57;;;;;;;36.00;17.10;;;;;;;4.80;100.00;101232.55;106022;1250;61215;-74
2024/03/15 07:07:26;;;;;;;38.10;18.50;;;;;;;4.85;100.00;101227.21;105860;1251;75944;-74
2024/03/15 07:09:52;;;;;;;33.80;18.00;;;;;;;4.93;100.00;101229.95;106018;1253;62788;-73
2024/03/15 07:12:19;;;;;;;35.40;19.30;;;;;;;4.97;100.00;101230.20;105962;1256;71901;-74
2024/03/15 07:14:46;;;;;;;44.40;20.60;;;;;;;4.98;100.00;101227.75;106006;1254;61229;-75
2024/03/15 07:17:17;;;;;;;47.90;19.50;;;;;;;5.02;100.00;101226.07;106035;1255;61182;-76
2024/03/15 07:19:44;;;;;;;42.90;20.80;;;;;;;5.08;100.00;101224.00;105876;1252;76162;-76
2024/03/15 07:22:12;;;;;;;46.50;21.40;;;;;;;5.11;100.00;101222.86;105912;1252;63948;-75
2024/03/15 07:24:39;;;;;;;41.80;21.20;;;;;;;5.17;100.00;101223.73;105962;1256;74059;-75
2024/03/15 07:27:06;;;;;;;42.40;20.60;;;;;;;5.22;100.00;101223.98;105921;1251;61326;-75
2024/03/15 07:29:32;;;;;;;44.80;19.50;;;;;;;5.21;100.00;101223.66;105822;1251;61352;-76
2024/03/15 07:32:01;;;;;;;36.50;19.50;;;;;;;5.13;100.00;101223.88;105879;1251;74850;-76
2024/03/15 07:34:29;;;;;;;47.10;19.60;;;;;;;5.08;100.00;101225.58;105825;1254;64997;-73
2024/03/15 07:36:56;;;;;;;39.00;20.60;;;;;;;5.05;100.00;101226.85;105874;1254;72276;-75
2024/03/15 07:39:28;;;;;;;41.30;19.40;;;;;;;5.07;100.00;101225.23;105882;1256;62018;-74
2024/03/15 07:42:01;;;;;;;44.20;20.70;;;;;;;5.04;100.00;101222.02;105891;1254;61208;-75
2024/03/15 07:44:28;;;;;;;41.70;21.10;;;;;;;5.04;100.00;101220.47;105917;1253;73814;-73
2024/03/15 07:46:58;;;;;;;64.90;30.60;;;;;;;5.06;100.00;101221.45;105867;1255;61749;-75
2024/03/15 07:49:25;;;;;;;46.10;25.30;;;;;;;5.09;100.00;101219.45;105868;1256;73694;-75
2024/03/15 07:51:53;;;;;;;51.70;24.00;;;;;;;5.17;100.00;101218.72;105911;1256;61620;-75
2024/03/15 07:54:23;;;;;;;47.20;23.20;;;;;;;5.22;100.00;101215.13;105938;1254;61126;-75
2024/03/15 07:56:52;;;;;;;39.20;21.80;;;;;;;5.23;100.00;101213.00;105957;1250;73571;-76
2024/03/15 07:59:20;;;;;;;44.30;21.60;;;;;;;5.27;100.00;101211.17;105985;1250;65006;-75
2024/03/15 08:01:47;;;;;;;63.30;23.80;;;;;;;5.33;100.00;101210.65;106020;1251;72410;-75
2024/03/15 08:06:56;;;;;;;45.10;23.60;;;;;;;5.40;100.00;101204.36;102752;1291;600446;-74
2024/03/15 08:09:23;;;;;;;54.10;28.20;;;;;;;5.35;100.00;101207.82;104870;1266;60827;-75
2024/03/15 08:11:52;;;;;;;48.60;27.10;;;;;;;5.32;100.00;101209.61;104869;1267;62393;-74
2024/03/15 08:14:20;;;;;;;48.50;23.10;;;;;;;5.33;100.00;101206.31;104969;1266;75200;-75
2024/03/15 08:16:48;;;;;;;42.80;22.30;;;;;;;5.35;100.00;101208.52;104846;1271;65635;-77
2024/03/15 08:19:16;;;;;;;45.50;24.70;;;;;;;5.37;100.00;101210.54;104834;1267;72892;-76
2024/03/15 08:21:43;;;;;;;38.50;19.30;;;;;;;5.40;100.00;101209.04;104973;1269;211098;-75
2024/03/15 08:24:12;;;;;;;39.30;21.60;;;;;;;5.48;100.00;101210.20;105000;1264;59529;-74
2024/03/15 08:26:41;;;;;;;43.20;22.60;;;;;;;5.50;100.00;101212.41;105032;1266;71396;-76
2024/03/15 08:29:09;;;;;;;60.50;22.60;;;;;;;5.50;100.00;101212.06;104939;1269;64072;-74
2024/03/15 08:31:38;;;;;;;37.10;22.10;;;;;;;5.50;100.00;101210.86;105715;1254;73463;-76
2024/03/15 08:34:07;;;;;;;43.70;22.10;;;;;;;5.48;100.00;101214.54;105680;1259;60418;-74
2024/03/15 08:36:36;;;;;;;40.20;21.20;;;;;;;5.47;100.00;101217.54;105642;1254;60431;-74
2024/03/15 08:39:10;;;;;;;40.60;20.20;;;;;;;5.43;100.00;101217.64;105670;1254;73852;-74
2024/03/15 08:41:42;;;;;;;35.60;20.10;;;;;;;5.37;100.00;101216.41;105655;1258;63992;-75
2024/03/15 08:44:13;;;;;;;41.30;19.70;;;;;;;5.33;100.00;101218.11;105711;1254;73155;-77
2024/03/15 08:46:41;;;;;;;33.90;22.40;;;;;;;5.31;100.00;101217.11;105702;1259;62546;-74
2024/03/15 08:49:10;;;;;;;32.20;18.30;;;;;;;5.31;100.00;101214.70;105643;1254;61830;-75
2024/03/15 08:51:38;;;;;;;35.10;20.10;;;;;;;5.33;100.00;101216.36;105650;1254;73705;-75
2024/03/15 08:54:09;;;;;;;34.20;19.10;;;;;;;5.28;100.00;101214.93;105733;1259;62891;-74
2024/03/15 08:56:39;;;;;;;31.40;18.70;;;;;;;5.25;100.00;101215.73;105728;1257;73603;-76
2024/03/15 08:59:07;;;;;;;31.00;20.90;;;;;;;5.20;100.00;101216.73;105797;1254;60466;-75
2024/03/15 09:01:35;;;;;;;37.10;21.40;;;;;;;5.16;100.00;101217.88;105751;1254;60706;-75
2024/03/15 09:04:04;;;;;;;41.00;21.40;;;;;;;5.15;100.00;101213.41;105771;1259;74865;-74
2024/03/15 09:06:34;;;;;;;32.40;19.30;;;;;;;5.10;100.00;101211.30;105724;1259;64013;-74
2024/03/15 09:09:13;;;;;;;33.20;19.50;;;;;;;5.04;100.00;101206.79;105685;1259;71977;-74
2024/03/15 09:11:44;;;;;;;36.90;21.80;;;;;;;4.98;100.00;101207.83;105670;1259;62493;-72
2024/03/15 09:14:17;;;;;;;31.30;20.00;;;;;;;4.99;100.00;101205.52;105624;1254;60335;-73
2024/03/15 09:16:46;;;;;;;27.00;19.60;;;;;;;5.02;100.00;101202.34;105780;1254;73668;-71
2024/03/15 09:19:31;;;;;;;37.00;21.40;;;;;;;5.04;100.00;101202.63;102620;1293;600491;-74
2024/03/15 09:21:59;;;;;;;32.20;21.80;;;;;;;5.03;100.00;101204.05;105001;1271;60123;-77
2024/03/15 09:24:31;;;;;;;33.30;22.60;;;;;;;5.03;100.00;101204.23;104899;1264;62608;-74
2024/03/15 09:26:59;;;;;;;29.10;22.20;;;;;;;5.02;100.00;101211.34;105011;1264;74704;-74
2024/03/15 09:29:27;;;;;;;28.10;20.70;;;;;;;5.02;100.00;101215.33;104869;1273;65914;-73
2024/03/15 09:31:56;;;;;;;29.10;20.40;;;;;;;5.04;100.00;101220.64;104982;1269;72071;-74
2024/03/15 09:34:45;;;;;;;26.80;18.70;;;;;;;5.04;100.00;101220.65;105075;1263;59822;-75
2024/03/15 09:37:14;;;;;;;22.50;17.10;;;;;;;4.97;100.00;101220.64;105046;1268;59810;-74
2024/03/15 09:39:42;;;;;;;26.80;18.60;;;;;;;4.92;100.00;101220.95;105161;1263;71714;-75
2024/03/15 09:42:17;;;;;;;28.60;21.20;;;;;;;4.88;100.00;101221.76;105406;1260;63378;-75
2024/03/15 09:44:48;;;;;;;30.20;19.90;;;;;;;4.85;100.00;101222.89;105345;1255;72509;-74
2024/03/15 09:47:16;;;;;;;32.70;22.50;;;;;;;4.85;100.00;101217.00;105400;1256;62886;-73
2024/03/15 09:49:43;;;;;;;29.70;22.60;;;;;;;4.90;100.00;101216.86;105325;1260;62670;-74
2024/03/15 09:52:12;;;;;;;29.30;22.60;;;;;;;4.97;100.00;101218.08;105295;1254;73633;-74
2024/03/15 09:54:41;;;;;;;39.90;26.60;;;;;;;4.99;100.00;101218.52;105345;1258;64211;-74
2024/03/15 09:57:11;;;;;;;36.10;27.90;;;;;;;5.00;100.00;101217.96;105332;1260;72258;-74
2024/03/15 09:59:38;;;;;;;35.00;26.80;;;;;;;4.99;100.00;101215.05;105410;1261;60499;-75
2024/03/15 10:02:11;;;;;;;38.10;27.70;;;;;;;5.02;100.00;101212.20;105262;1262;60519;-75
2024/03/15 10:04:43;;;;;;;40.00;24.60;;;;;;;5.03;100.00;101207.67;105365;1262;73274;-74
2024/03/15 10:07:13;;;;;;;40.60;26.50;;;;;;;4.98;100.00;101207.63;105345;1260;63980;-75
2024/03/15 10:09:41;;;;;;;46.90;28.00;;;;;;;4.94;100.00;101211.20;105326;1254;74742;-74
2024/03/15 10:12:09;;;;;;;33.20;26.60;;;;;;;4.98;100.00;101211.79;105380;1260;61811;-75
2024/03/15 10:14:37;;;;;;;32.30;24.50;;;;;;;5.06;100.00;101214.02;105500;1262;60907;-74
2024/03/15 10:17:05;;;;;;;46.40;28.80;;;;;;;5.13;100.00;101210.33;105302;1260;76229;-75
2024/03/15 10:19:33;;;;;;;39.90;27.20;;;;;;;5.21;100.00;101209.25;105266;1260;63849;-76
2024/03/15 10:22:00;;;;;;;42.10;28.80;;;;;;;5.28;100.00;101206.27;105318;1257;73770;-74
2024/03/15 10:24:29;;;;;;;49.70;30.50;;;;;;;5.35;100.00;101207.64;105350;1257;62151;-75
2024/03/15 10:26:56;;;;;;;43.70;29.40;;;;;;;5.37;100.00;101205.67;105331;1260;62633;-74
2024/03/15 10:29:24;;;;;;;38.30;29.50;;;;;;;5.41;100.00;101206.06;105365;1260;75726;-75
2024/03/15 10:31:55;;;;;;;40.60;28.60;;;;;;;5.43;100.00;101200.48;105343;1254;65366;-75
2024/03/15 10:34:23;;;;;;;41.30;27.10;;;;;;;5.45;100.00;101200.25;105297;1254;72803;-76
2024/03/15 10:36:55;;;;;;;37.40;28.20;;;;;;;5.44;100.00;101203.41;105465;1257;62007;-76
2024/03/15 10:39:23;;;;;;;45.00;30.00;;;;;;;5.38;100.00;101201.31;105359;1254;60714;-75
2024/03/15 10:41:51;;;;;;;38.30;28.80;;;;;;;5.40;100.00;101207.16;105496;1254;75430;-75
2024/03/15 10:44:19;;;;;;;49.80;31.00;;;;;;;5.40;100.00;101205.42;105375;1257;62160;-75
2024/03/15 10:46:46;;;;;;;46.60;29.50;;;;;;;5.42;100.00;101207.10;105390;1259;72662;-75
2024/03/15 10:49:14;;;;;;;42.40;32.20;;;;;;;5.42;100.00;101205.88;105350;1254;64483;-74
2024/03/15 10:51:43;;;;;;;46.50;32.80;;;;;;;5.38;100.00;101208.77;105463;1254;60598;-75
2024/03/15 10:54:15;;;;;;;51.40;32.60;;;;;;;5.37;100.00;101207.23;105538;1260;76199;-74
2024/03/15 10:56:43;;;;;;;49.30;35.30;;;;;;;5.37;100.00;101206.88;106354;1260;62790;-74
2024/03/15 10:59:11;;;;;;;50.40;35.20;;;;;;;5.45;100.00;101208.56;106038;1259;71837;-74
2024/03/15 11:01:40;;;;;;;57.50;37.20;;;;;;;5.51;100.00;101210.98;106164;1262;60627;-73
2024/03/15 11:04:12;;;;;;;58.10;39.30;;;;;;;5.57;100.00;101207.87;108046;1253;60406;-73
2024/03/15 11:06:41;;;;;;;54.90;38.50;;;;;;;5.62;100.00;101211.02;108614;1254;72599;-74
2024/03/15 11:09:24;;;;;;;48.30;36.60;;;;;;;5.67;100.00;101214.16;108333;1253;63098;-72
2024/03/15 11:12:02;;;;;;;44.80;35.60;;;;;;;5.72;100.00;101213.84;105900;1259;72768;-76